createdAt,value
2023-03-18T00:00:21.475Z,100175.34
2023-03-18T00:03:07.652Z,100160.59
2023-03-18T00:05:54.207Z,100158.09
2023-03-18T00:08:40.977Z,100158.41
2023-03-18T00:11:28.386Z,100142.66
2023-03-18T00:14:14.559Z,100136.84
2023-03-18T00:17:01.114Z,100146.09
2023-03-18T00:19:47.155Z,100148.91
2023-03-18T00:22:33.619Z,100144.44
2023-03-18T00:25:19.639Z,100128.84
2023-03-18T00:28:07.347Z,100132.44
2023-03-18T00:30:53.609Z,100128.13
2023-03-18T00:33:40.195Z,100135.25
2023-03-18T00:36:26.429Z,100141.53
2023-03-18T00:39:14.350Z,100158.44
2023-03-18T00:42:01.952Z,100165.72
2023-03-18T00:44:49.781Z,100173.81
2023-03-18T00:47:36.125Z,100185.25
2023-03-18T00:50:22.562Z,100202.28
2023-03-18T00:53:08.688Z,100212.88
2023-03-18T00:55:55.309Z,100220.16
2023-03-18T00:58:41.758Z,100227.41
2023-03-18T01:01:29.256Z,100246.94
2023-03-18T01:04:18.646Z,100257.56
2023-03-18T01:07:05.512Z,100264.81
2023-03-18T01:09:51.657Z,100268.16
2023-03-18T01:12:39.601Z,100272.47
2023-03-18T01:15:25.801Z,100259.88
2023-03-18T01:18:13.311Z,100245.81
2023-03-18T01:20:59.145Z,100241.03
2023-03-18T01:23:47.969Z,100223.84
2023-03-18T01:26:33.962Z,100207.94
2023-03-18T01:29:20.921Z,100205.28
2023-03-18T01:32:07.363Z,100208.94
2023-03-18T01:34:55.767Z,100212.56
2023-03-18T01:37:42.028Z,100216.56
2023-03-18T01:40:31.958Z,100216.81
2023-03-18T01:43:20.660Z,100214.06
2023-03-18T01:46:22.088Z,100210.41
2023-03-18T01:49:10.299Z,100222.41
2023-03-18T01:51:58.740Z,100227.75
2023-03-18T01:54:45.964Z,100244.84
2023-03-18T01:57:32.931Z,100264.06
2023-03-18T02:00:19.966Z,100278.88
2023-03-18T02:03:06.177Z,100303.41
2023-03-18T02:05:53.760Z,100322.66
2023-03-18T02:08:41.802Z,100347.50
2023-03-18T02:11:28.679Z,100364.09
2023-03-18T02:14:17.804Z,100400.22
2023-03-18T02:17:04.247Z,100425.38
2023-03-18T02:19:55.990Z,100477.44
2023-03-18T02:22:43.359Z,100527.66
2023-03-18T02:25:34.925Z,100565.78
2023-03-18T02:28:23.075Z,100605.41
2023-03-18T02:31:10.465Z,100652.16
2023-03-18T02:33:56.775Z,100698.06
2023-03-18T02:36:42.709Z,100731.03
2023-03-18T02:39:31.033Z,100769.97
2023-03-18T02:42:27.749Z,100817.84
2023-03-18T02:45:18.216Z,100860.97
2023-03-18T02:48:20.835Z,100909.81
2023-03-18T02:51:07.291Z,100956.97
2023-03-18T02:53:53.827Z,101000.38
2023-03-18T02:56:40.414Z,101044.75
2023-03-18T02:59:26.709Z,101077.28
2023-03-18T03:02:14.641Z,101115.97
2023-03-18T03:05:00.832Z,101160.94
2023-03-18T03:07:47.557Z,101218.28
2023-03-18T03:10:34.073Z,101255.16
2023-03-18T03:13:20.719Z,101280.56
2023-03-18T03:16:08.076Z,101308.91
2023-03-18T03:18:55.464Z,101330.84
2023-03-18T03:21:42.318Z,101343.25
2023-03-18T03:24:28.502Z,101359.19
2023-03-18T03:27:14.174Z,101371.34
2023-03-18T03:30:00.172Z,101386.53
2023-03-18T03:32:46.336Z,101402.47
2023-03-18T03:35:34.187Z,101414.63
2023-03-18T03:38:20.572Z,101434.75
2023-03-18T03:41:08.750Z,101472.59
2023-03-18T03:43:54.898Z,101507.22
2023-03-18T03:46:41.211Z,101515.28
2023-03-18T03:49:27.350Z,101521.81
2023-03-18T03:52:14.683Z,101521.13
2023-03-18T03:55:05.265Z,101540.53
2023-03-18T03:57:52.151Z,101554.50
2023-03-18T04:00:38.279Z,101562.47
2023-03-18T04:03:25.545Z,101574.16
2023-03-18T04:06:12.070Z,101577.78
2023-03-18T04:09:06.343Z,101577.31
2023-03-18T04:11:52.538Z,101584.44
2023-03-18T04:14:38.818Z,101580.81
2023-03-18T04:17:24.630Z,101592.13
2023-03-18T04:20:11.617Z,101598.28
2023-03-18T04:22:58.547Z,101598.03
2023-03-18T04:25:46.062Z,101599.72
2023-03-18T04:28:34.047Z,101597.06
2023-03-18T04:31:21.005Z,101603.34
2023-03-18T04:34:06.889Z,101611.06
2023-03-18T04:36:53.063Z,101612.72
2023-03-18T04:39:39.528Z,101611.66
2023-03-18T04:42:30.718Z,101611.78
2023-03-18T04:45:17.095Z,101605.50
2023-03-18T04:48:02.870Z,101604.06
2023-03-18T04:50:52.203Z,101609.38
2023-03-18T04:53:43.628Z,101603.22
2023-03-18T04:56:31.259Z,101602.88
2023-03-18T04:59:19.571Z,101595.75
2023-03-18T05:02:06.533Z,101599.50
2023-03-18T05:04:53.795Z,101594.06
2023-03-18T05:07:40.222Z,101589.72
2023-03-18T05:10:30.678Z,101574.16
2023-03-18T05:13:17.473Z,101567.06
2023-03-18T05:16:06.571Z,101563.94
2023-03-18T05:18:53.153Z,101548.75
2023-03-18T05:21:39.412Z,101549.59
2023-03-18T05:24:25.573Z,101543.81
2023-03-18T05:27:12.095Z,101545.75
2023-03-18T05:30:01.218Z,101547.19
2023-03-18T05:32:59.643Z,101544.66
2023-03-18T05:35:59.746Z,101534.19
2023-03-18T05:38:51.665Z,101539.94
2023-03-18T05:41:38.602Z,101523.94
2023-03-18T05:44:29.392Z,101530.09
2023-03-18T05:47:19.142Z,101531.38
2023-03-18T05:50:20.064Z,101520.69
2023-03-18T05:53:06.464Z,101518.50
2023-03-18T05:55:57.707Z,101516.59
2023-03-18T05:58:45.817Z,101513.34
2023-03-18T06:01:41.551Z,101510.31
2023-03-18T06:04:27.735Z,101508.88
2023-03-18T06:07:15.171Z,101509.72
2023-03-18T06:10:01.385Z,101506.34
2023-03-18T06:12:47.647Z,101508.88
2023-03-18T06:15:35.827Z,101512.50
2023-03-18T06:18:21.684Z,101515.03
2023-03-18T06:21:09.769Z,101528.03
2023-03-18T06:23:57.540Z,101533.94
2023-03-18T06:26:44.616Z,101540.31
2023-03-18T06:29:31.550Z,101547.91
2023-03-18T06:32:24.488Z,101552.72
2023-03-18T06:35:11.644Z,101565.84
2023-03-18T06:37:58.510Z,101582.38
2023-03-18T06:40:46.355Z,101589.25
2023-03-18T06:43:33.202Z,101603.81
2023-03-18T06:46:20.245Z,101602.41
2023-03-18T06:49:06.593Z,101607.69
2023-03-18T06:51:56.871Z,101615.53
2023-03-18T06:54:43.253Z,101606.59
2023-03-18T06:57:30.627Z,101616.72
2023-03-18T07:00:17.666Z,101624.06
2023-03-18T07:03:04.879Z,101621.91
2023-03-18T07:05:51.189Z,101627.44
2023-03-18T07:08:37.818Z,101633.03
2023-03-18T07:11:25.341Z,101625.53
2023-03-18T07:14:14.440Z,101622.50
2023-03-18T07:17:02.765Z,101620.69
2023-03-18T07:19:48.804Z,101616.56
2023-03-18T07:22:35.094Z,101619.47
2023-03-18T07:25:22.841Z,101629.06
2023-03-18T07:28:09.960Z,101627.97
2023-03-18T07:30:57.894Z,101632.72
2023-03-18T07:33:43.951Z,101630.22
2023-03-18T07:36:29.938Z,101626.78
2023-03-18T07:39:16.259Z,101624.06
2023-03-18T07:42:02.742Z,101619.66
2023-03-18T07:44:49.491Z,101604.19
2023-03-18T07:47:37.075Z,101598.09
2023-03-18T07:50:23.109Z,101585.69
2023-03-18T07:53:09.243Z,101578.47
2023-03-18T07:55:55.700Z,101576.56
2023-03-18T07:58:41.932Z,101567.28
2023-03-18T08:01:28.826Z,101549.38
2023-03-18T08:04:16.445Z,101534.84
2023-03-18T08:07:03.160Z,101510.91
2023-03-18T08:09:50.505Z,101500.97
2023-03-18T08:12:51.680Z,101485.16
2023-03-18T08:15:39.055Z,101456.03
2023-03-18T08:18:24.868Z,101432.91
2023-03-18T08:21:12.179Z,101417.88
2023-03-18T08:23:58.199Z,101391.22
2023-03-18T08:26:44.345Z,101373.81
2023-03-18T08:29:30.368Z,101348.69
2023-03-18T08:32:16.658Z,101324.63
2023-03-18T08:35:02.761Z,101302.44
2023-03-18T08:37:51.102Z,101274.59
2023-03-18T08:40:37.327Z,101250.34
2023-03-18T08:43:23.204Z,101234.28
2023-03-18T08:46:09.490Z,101215.69
2023-03-18T08:48:55.486Z,101185.28
2023-03-18T08:51:41.898Z,101164.53
2023-03-18T08:54:30.058Z,101153.69
2023-03-18T08:57:15.988Z,101126.25
2023-03-18T09:00:01.842Z,101086.63
2023-03-18T09:02:48.463Z,101046.59
2023-03-18T09:05:35.002Z,100999.97
2023-03-18T09:08:21.960Z,100934.28
2023-03-18T09:11:09.721Z,100859.31
2023-03-18T09:13:55.787Z,100805.34
2023-03-18T09:16:41.634Z,100734.34
2023-03-18T09:19:27.553Z,100687.53
2023-03-18T09:22:13.402Z,100646.25
2023-03-18T09:24:59.444Z,100610.44
2023-03-18T09:27:47.551Z,100545.06
2023-03-18T09:30:33.736Z,100507.25
2023-03-18T09:33:20.741Z,100484.69
2023-03-18T09:36:07.181Z,100476.16
2023-03-18T09:38:53.201Z,100465.19
2023-03-18T09:41:42.668Z,100456.13
2023-03-18T09:44:30.648Z,100455.00
2023-03-18T09:47:21.964Z,100458.00
2023-03-18T09:50:12.932Z,100453.25
2023-03-18T09:53:02.137Z,100455.94
2023-03-18T09:55:49.009Z,100457.59
2023-03-18T09:58:36.009Z,100455.53
2023-03-18T10:01:24.293Z,100456.34
2023-03-18T10:04:11.953Z,100454.69
2023-03-18T10:06:58.566Z,100462.97
2023-03-18T10:09:45.906Z,100464.00
2023-03-18T10:12:32.683Z,100465.44
2023-03-18T10:15:18.854Z,100466.50
2023-03-18T10:18:06.627Z,100461.09
2023-03-18T10:20:53.702Z,100465.38
2023-03-18T10:23:43.630Z,100473.91
2023-03-18T10:26:32.293Z,100480.47
2023-03-18T10:29:33.227Z,100487.38
2023-03-18T10:32:22.632Z,100490.63
2023-03-18T10:35:15.612Z,100499.25
2023-03-18T10:38:04.504Z,100505.72
2023-03-18T10:40:50.403Z,100511.00
2023-03-18T10:43:36.265Z,100519.16
2023-03-18T10:46:22.786Z,100519.25
2023-03-18T10:49:10.541Z,100531.28
2023-03-18T10:51:58.929Z,100536.47
2023-03-18T10:54:46.627Z,100537.97
2023-03-18T10:57:33.317Z,100547.97
2023-03-18T11:00:26.372Z,100555.38
2023-03-18T11:03:18.383Z,100557.03
2023-03-18T11:06:05.675Z,100567.28
2023-03-18T11:09:00.895Z,100566.19
2023-03-18T11:11:48.852Z,100565.19
2023-03-18T11:14:38.305Z,100575.69
2023-03-18T11:17:27.294Z,100580.75
2023-03-18T11:20:20.873Z,100577.44
2023-03-18T11:23:12.817Z,100576.22
2023-03-18T11:26:03.515Z,100577.59
2023-03-18T11:28:49.572Z,100570.22
2023-03-18T11:31:36.698Z,100573.91
2023-03-18T11:34:23.080Z,100570.22
2023-03-18T11:37:11.767Z,100572.69
2023-03-18T11:40:07.406Z,100573.16
2023-03-18T11:42:58.521Z,100569.28
2023-03-18T11:45:45.311Z,100571.09
2023-03-18T11:48:32.461Z,100574.75
2023-03-18T11:51:28.569Z,100564.63
2023-03-18T11:54:24.759Z,100565.34
2023-03-18T11:57:12.294Z,100561.66
2023-03-18T12:00:01.930Z,100558.09
2023-03-18T12:03:01.546Z,100556.91
2023-03-18T12:05:52.010Z,100550.16
2023-03-18T12:08:43.404Z,100552.59
2023-03-18T12:11:34.405Z,100546.53
2023-03-18T12:14:21.315Z,100550.50
2023-03-18T12:17:13.084Z,100546.25
2023-03-18T12:20:09.950Z,100547.47
2023-03-18T12:23:03.264Z,100544.47
2023-03-18T12:25:58.136Z,100540.47
2023-03-18T12:28:55.173Z,100531.75
2023-03-18T12:31:50.226Z,100536.19
2023-03-18T12:34:42.607Z,100523.56
2023-03-18T12:37:32.094Z,100523.34
2023-03-18T12:40:20.557Z,100526.63
2023-03-18T12:43:12.747Z,100521.66
2023-03-18T12:46:02.496Z,100518.13
2023-03-18T12:48:51.444Z,100524.19
2023-03-18T12:51:41.705Z,100519.66
2023-03-18T12:54:28.641Z,100510.56
2023-03-18T12:57:15.563Z,100512.38
2023-03-18T13:00:02.896Z,100499.25
2023-03-18T13:02:50.164Z,100492.97
2023-03-18T13:05:40.598Z,100487.91
2023-03-18T13:08:37.538Z,100483.28
2023-03-18T13:11:30.158Z,100470.00
2023-03-18T13:14:18.636Z,100474.34
2023-03-18T13:17:05.020Z,100473.84
2023-03-18T13:19:51.234Z,100483.59
2023-03-18T13:22:47.671Z,100474.13
2023-03-18T13:25:37.201Z,100481.38
2023-03-18T13:28:43.781Z,100487.38
2023-03-18T13:31:32.848Z,100485.28
2023-03-18T13:34:26.564Z,100484.47
2023-03-18T13:37:14.575Z,100481.72
2023-03-18T13:40:05.677Z,100485.22
2023-03-18T13:42:53.018Z,100479.28
2023-03-18T13:45:39.446Z,100479.31
2023-03-18T13:48:28.738Z,100468.38
2023-03-18T13:51:16.222Z,100483.50
2023-03-18T13:54:04.991Z,100481.03
2023-03-18T13:56:52.839Z,100476.06
2023-03-18T13:59:46.911Z,100483.16
2023-03-18T14:02:43.531Z,100482.78
2023-03-18T14:05:37.172Z,100487.56
2023-03-18T14:08:37.032Z,100488.63
2023-03-18T14:11:51.139Z,100487.34
2023-03-18T14:15:05.837Z,100490.47
2023-03-18T14:17:56.936Z,100486.34
2023-03-18T14:20:43.510Z,100499.16
2023-03-18T14:23:30.380Z,100485.72
2023-03-18T14:26:20.449Z,100485.31
2023-03-18T14:29:16.789Z,100495.63
2023-03-18T14:32:08.299Z,100492.13
2023-03-18T14:34:56.433Z,100501.84
2023-03-18T14:37:54.687Z,100498.50
2023-03-18T14:40:41.699Z,100498.50
2023-03-18T14:43:29.929Z,100508.41
2023-03-18T14:46:17.683Z,100507.94
2023-03-18T14:49:04.701Z,100505.03
2023-03-18T14:51:52.148Z,100500.47
2023-03-18T14:54:39.380Z,100507.25
2023-03-18T14:57:25.736Z,100512.38
2023-03-18T15:00:15.098Z,100504.09
2023-03-18T15:03:01.523Z,100507.41
2023-03-18T15:05:47.958Z,100507.75
2023-03-18T15:08:47.449Z,100516.41
2023-03-18T15:11:39.526Z,100516.59
2023-03-18T15:14:26.866Z,100530.00
2023-03-18T15:17:14.986Z,100528.31
2023-03-18T15:20:01.128Z,100518.19
2023-03-18T15:22:46.903Z,100516.09
2023-03-18T15:25:34.796Z,100511.66
2023-03-18T15:28:21.447Z,100505.91
2023-03-18T15:31:07.857Z,100510.81
2023-03-18T15:34:04.678Z,100514.91
2023-03-18T15:36:53.866Z,100514.09
2023-03-18T15:39:40.896Z,100507.25
2023-03-18T15:42:28.283Z,100507.59
2023-03-18T15:45:16.247Z,100507.59
2023-03-18T15:48:05.625Z,100506.09
2023-03-18T15:50:56.141Z,100515.75
2023-03-18T15:53:43.690Z,100513.03
2023-03-18T15:56:31.174Z,100513.03
2023-03-18T15:59:20.512Z,100501.03
2023-03-18T16:02:07.609Z,100502.19
2023-03-18T16:04:53.857Z,100502.56
2023-03-18T16:07:40.583Z,100512.03
2023-03-18T16:10:26.721Z,100516.47
2023-03-18T16:13:15.722Z,100510.88
2023-03-18T16:16:03.598Z,100513.50
2023-03-18T16:18:49.454Z,100519.25
2023-03-18T16:21:35.523Z,100508.06
2023-03-18T16:24:21.790Z,100517.91
2023-03-18T16:27:08.340Z,100515.78
2023-03-18T16:29:55.340Z,100524.41
2023-03-18T16:32:42.864Z,100525.97
2023-03-18T16:35:32.502Z,100533.31
2023-03-18T16:38:19.569Z,100533.31
2023-03-18T16:41:05.658Z,100534.88
2023-03-18T16:43:52.585Z,100536.06
2023-03-18T16:46:38.563Z,100533.50
2023-03-18T16:49:26.976Z,100542.00
2023-03-18T16:52:13.349Z,100543.31
2023-03-18T16:55:00.573Z,100550.34
2023-03-18T16:57:48.072Z,100553.84
2023-03-18T17:00:34.059Z,100553.28
2023-03-18T17:03:20.137Z,100560.72
2023-03-18T17:06:08.771Z,100566.25
2023-03-18T17:08:54.574Z,100574.03
2023-03-18T17:11:40.772Z,100574.50
2023-03-18T17:14:29.474Z,100580.44
2023-03-18T17:17:17.565Z,100592.06
2023-03-18T17:20:03.888Z,100588.84
2023-03-18T17:22:51.100Z,100590.44
2023-03-18T17:25:37.493Z,100605.38
2023-03-18T17:28:30.977Z,100603.41
2023-03-18T17:31:17.521Z,100614.44
2023-03-18T17:34:03.508Z,100616.13
2023-03-18T17:36:49.571Z,100627.66
2023-03-18T17:39:40.428Z,100642.47
2023-03-18T17:42:29.060Z,100655.97
2023-03-18T17:45:20.135Z,100662.44
2023-03-18T17:48:13.948Z,100674.41
2023-03-18T17:51:00.182Z,100685.84
2023-03-18T17:53:47.777Z,100709.91
2023-03-18T17:56:36.056Z,100712.53
2023-03-18T17:59:22.171Z,100717.72
2023-03-18T18:02:10.389Z,100741.28
2023-03-18T18:04:56.591Z,100761.16
2023-03-18T18:07:43.172Z,100774.53
2023-03-18T18:10:29.398Z,100805.72
2023-03-18T18:13:17.658Z,100829.72
2023-03-18T18:16:03.934Z,100855.03
2023-03-18T18:18:50.321Z,100885.00
2023-03-18T18:21:36.388Z,100913.47
2023-03-18T18:24:23.127Z,100935.75
2023-03-18T18:27:10.095Z,100965.97
2023-03-18T18:29:58.108Z,100987.97
2023-03-18T18:32:44.782Z,100999.28
2023-03-18T18:35:30.950Z,101017.09
2023-03-18T18:38:16.807Z,101032.88
2023-03-18T18:41:02.729Z,101041.66
2023-03-18T18:43:48.883Z,101066.38
2023-03-18T18:46:36.386Z,101090.00
2023-03-18T18:49:23.050Z,101111.94
2023-03-18T18:52:10.293Z,101135.66
2023-03-18T18:54:56.620Z,101152.13
2023-03-18T18:57:42.685Z,101158.94
2023-03-18T19:00:28.654Z,101180.72
2023-03-18T19:03:17.655Z,101206.38
2023-03-18T19:06:04.853Z,101223.22
2023-03-18T19:08:50.948Z,101248.09
2023-03-18T19:11:37.152Z,101279.22
2023-03-18T19:14:25.295Z,101310.47
2023-03-18T19:17:13.481Z,101322.63
2023-03-18T19:20:03.747Z,101363.13
2023-03-18T19:22:50.578Z,101397.81
2023-03-18T19:25:36.401Z,101438.06
2023-03-18T19:28:31.578Z,101482.09
2023-03-18T19:31:18.786Z,101518.75
2023-03-18T19:34:07.318Z,101546.84
2023-03-18T19:36:55.872Z,101592.41
2023-03-18T19:39:42.023Z,101635.22
2023-03-18T19:42:28.161Z,101655.03
2023-03-18T19:45:14.442Z,101680.59
2023-03-18T19:48:00.859Z,101702.56
2023-03-18T19:50:46.902Z,101731.50
2023-03-18T19:53:34.826Z,101741.28
2023-03-18T19:56:23.421Z,101755.53
2023-03-18T19:59:09.691Z,101767.84
2023-03-18T20:01:55.879Z,101777.50
2023-03-18T20:04:45.198Z,101783.78
2023-03-18T20:07:33.618Z,101798.97
2023-03-18T20:10:21.136Z,101799.81
2023-03-18T20:13:07.328Z,101803.56
2023-03-18T20:15:53.153Z,101798.25
2023-03-18T20:18:39.254Z,101798.25
2023-03-18T20:21:26.739Z,101800.19
2023-03-18T20:24:13.860Z,101789.91
2023-03-18T20:27:01.251Z,101792.56
2023-03-18T20:29:49.900Z,101786.66
2023-03-18T20:32:35.952Z,101791.00
2023-03-18T20:35:22.118Z,101792.81
2023-03-18T20:38:12.607Z,101791.97
2023-03-18T20:40:58.584Z,101784.25
2023-03-18T20:43:50.208Z,101784.50
2023-03-18T20:46:36.799Z,101781.00
2023-03-18T20:49:22.942Z,101788.22
2023-03-18T20:52:12.144Z,101788.00
2023-03-18T20:55:01.188Z,101802.47
2023-03-18T20:57:47.387Z,101812.97
2023-03-18T21:00:35.167Z,101812.00
2023-03-18T21:03:22.448Z,101816.59
2023-03-18T21:06:11.681Z,101815.88
2023-03-18T21:09:00.829Z,101820.31
2023-03-18T21:11:49.261Z,101830.09
2023-03-18T21:14:35.350Z,101832.25
2023-03-18T21:17:23.743Z,101842.00
2023-03-18T21:20:21.735Z,101860.47
2023-03-18T21:23:12.227Z,101855.16
2023-03-18T21:25:58.112Z,101855.16
2023-03-18T21:28:43.863Z,101864.94
2023-03-18T21:31:33.305Z,101866.63
2023-03-18T21:34:21.039Z,101872.78
2023-03-18T21:37:10.977Z,101861.22
2023-03-18T21:39:56.708Z,101870.88
2023-03-18T21:42:43.681Z,101878.91
2023-03-18T21:45:30.422Z,101877.47
2023-03-18T21:48:17.099Z,101892.66
2023-03-18T21:51:04.910Z,101898.81
2023-03-18T21:53:51.078Z,101904.00
2023-03-18T21:56:37.684Z,101912.81
2023-03-18T21:59:23.731Z,101911.00
2023-03-18T22:02:14.493Z,101904.13
2023-03-18T22:05:04.358Z,101912.22
2023-03-18T22:07:51.643Z,101905.09
2023-03-18T22:10:37.372Z,101896.75
2023-03-18T22:13:23.773Z,101894.84
2023-03-18T22:16:11.449Z,101899.28
2023-03-18T22:18:57.539Z,101899.41
2023-03-18T22:21:46.888Z,101890.84
2023-03-18T22:24:37.338Z,101902.19
2023-03-18T22:27:25.365Z,101889.88
2023-03-18T22:30:15.652Z,101887.44
2023-03-18T22:33:04.477Z,101896.03
2023-03-18T22:35:50.478Z,101896.88
2023-03-18T22:38:36.766Z,101895.41
2023-03-18T22:41:29.252Z,101882.47
2023-03-18T22:44:15.992Z,101886.09
2023-03-18T22:47:05.762Z,101884.53
2023-03-18T22:49:51.958Z,101881.50
2023-03-18T22:52:37.937Z,101886.69
2023-03-18T22:55:24.208Z,101875.34
2023-03-18T22:58:14.474Z,101883.19
2023-03-18T23:01:03.377Z,101870.25
2023-03-18T23:03:49.403Z,101871.09
2023-03-18T23:06:35.753Z,101871.72
2023-03-18T23:09:24.264Z,101878.84
2023-03-18T23:12:10.587Z,101880.66
2023-03-18T23:14:58.014Z,101876.50
2023-03-18T23:17:44.081Z,101875.56
2023-03-18T23:20:30.124Z,101869.63
2023-03-18T23:23:16.667Z,101877.72
2023-03-18T23:26:05.298Z,101863.00
2023-03-18T23:28:51.672Z,101862.28
2023-03-18T23:31:38.928Z,101858.88
2023-03-18T23:34:25.624Z,101859.13
2023-03-18T23:37:12.289Z,101849.56
2023-03-18T23:39:58.363Z,101848.00
2023-03-18T23:42:44.490Z,101843.03
2023-03-18T23:45:31.784Z,101850.50
2023-03-18T23:48:22.422Z,101845.50
2023-03-18T23:51:08.389Z,101835.25
2023-03-18T23:53:54.327Z,101834.88
2023-03-18T23:56:40.299Z,101821.13
2023-03-18T23:59:26.496Z,101812.63
